Philadelphia, Pennsylvania
Traffic Map
Current Weather Conditions
Philadelphia, Pennsylvania
Few Clouds
Few Clouds
66°
Feels Like: 66°
Wind Chill: 66° Ceiling: Unl
Heat Index: 66° Visibility: 10mi
Dew Point: 60° Wind: 3mph
Humidity: 81% Direction: 220° (SW)
Pressure: 29.96in Gusts: 0mph
Raw Report DataKPHL 280154Z 22003KT 10SM FEW250 19/16 A2996 RMK AO2 SLP144 T01890156
Traffic Incident Summary
Active as of:
Severity:
Category:
InformationThere was an issue retrieving the traffic information for this location. Please try a different location or try again shortly.
Advertisements
Track Severe Weather on mobile